createdAt,value
2023-01-13T00:00:23.072Z,48.03
2023-01-13T00:02:50.864Z,48.28
2023-01-13T00:05:18.779Z,47.45
2023-01-13T00:07:46.933Z,48.32
2023-01-13T00:10:14.807Z,48.59
2023-01-13T00:12:42.866Z,47.74
2023-01-13T00:15:11.407Z,48.58
2023-01-13T00:17:39.395Z,48.36
2023-01-13T00:20:07.999Z,49.16
2023-01-13T00:22:36.058Z,48.43
2023-01-13T00:25:04.792Z,48.79
2023-01-13T00:27:32.828Z,48.32
2023-01-13T00:30:00.708Z,48.27
2023-01-13T00:32:28.816Z,48.56
2023-01-13T00:34:56.655Z,48.39
2023-01-13T00:37:24.585Z,48.42
2023-01-13T00:39:53.127Z,48.51
2023-01-13T00:42:39.233Z,48.75
2023-01-13T00:45:07.556Z,49.37
2023-01-13T00:47:35.489Z,49.35
2023-01-13T00:50:03.325Z,49.65
2023-01-13T00:52:32.995Z,49.87
2023-01-13T00:55:01.513Z,50.34
2023-01-13T00:57:29.388Z,51.24
2023-01-13T00:59:57.201Z,51.08
2023-01-13T01:02:25.111Z,51.40
2023-01-13T01:04:52.974Z,51.01
2023-01-13T01:07:20.773Z,50.07
2023-01-13T01:09:48.693Z,50.73
2023-01-13T01:12:16.707Z,50.67
2023-01-13T01:14:44.981Z,51.14
2023-01-13T01:17:12.819Z,50.80
2023-01-13T01:19:40.817Z,51.63
2023-01-13T01:22:08.607Z,51.15
2023-01-13T01:24:36.516Z,51.55
2023-01-13T01:27:04.235Z,50.47
2023-01-13T01:29:32.086Z,50.26
2023-01-13T01:31:59.986Z,50.32
2023-01-13T01:34:27.801Z,50.44
2023-01-13T01:36:55.676Z,50.49
2023-01-13T01:39:23.557Z,49.93
2023-01-13T01:42:09.582Z,49.93
2023-01-13T01:44:43.282Z,50.45
2023-01-13T01:47:15.589Z,50.46
2023-01-13T01:49:43.405Z,50.69
2023-01-13T01:52:12.375Z,50.61
2023-01-13T01:54:53.460Z,49.51
2023-01-13T01:57:27.890Z,50.08
2023-01-13T01:59:55.672Z,50.02
2023-01-13T02:02:23.791Z,49.82
2023-01-13T02:04:52.625Z,50.59
2023-01-13T02:07:32.114Z,50.60
2023-01-13T02:10:02.505Z,50.13
2023-01-13T02:12:30.335Z,49.15
2023-01-13T02:15:02.661Z,49.61
2023-01-13T02:18:02.509Z,49.76
2023-01-13T02:20:33.327Z,49.23
2023-01-13T02:23:44.539Z,48.24
2023-01-13T02:26:33.336Z,48.15
2023-01-13T02:29:57.236Z,48.23
2023-01-13T02:32:31.608Z,48.20
2023-01-13T02:35:09.056Z,48.04
2023-01-13T02:37:38.168Z,47.35
2023-01-13T02:40:17.869Z,48.57
2023-01-13T02:43:11.344Z,47.54
2023-01-13T02:45:42.835Z,47.40
2023-01-13T02:48:10.663Z,47.38
2023-01-13T02:50:59.486Z,46.57
2023-01-13T02:53:34.961Z,46.63
2023-01-13T02:56:03.911Z,44.50
2023-01-13T02:58:32.671Z,44.56
2023-01-13T03:01:00.580Z,44.33
2023-01-13T03:03:28.448Z,43.67
2023-01-13T03:06:07.172Z,44.43
2023-01-13T03:08:43.313Z,43.71
2023-01-13T03:11:15.270Z,43.70
2023-01-13T03:14:04.306Z,44.07
2023-01-13T03:16:38.789Z,44.17
2023-01-13T03:19:09.116Z,45.56
2023-01-13T03:21:55.813Z,45.67
2023-01-13T03:24:30.135Z,44.37
2023-01-13T03:27:02.614Z,45.66
2023-01-13T03:29:39.275Z,45.59
2023-01-13T03:32:25.479Z,45.18
2023-01-13T03:35:10.500Z,45.89
2023-01-13T03:37:40.298Z,44.63
2023-01-13T03:40:11.980Z,44.58
2023-01-13T03:42:39.778Z,45.00
2023-01-13T03:45:11.104Z,44.23
2023-01-13T03:47:55.515Z,44.34
2023-01-13T03:50:26.248Z,45.10
2023-01-13T03:52:59.563Z,44.38
2023-01-13T03:55:29.555Z,43.69
2023-01-13T03:58:03.568Z,43.50
2023-01-13T04:00:34.701Z,43.82
2023-01-13T04:03:07.953Z,43.09
2023-01-13T04:05:36.792Z,42.39
2023-01-13T04:08:20.728Z,42.27
2023-01-13T04:10:54.168Z,41.58
2023-01-13T04:13:23.322Z,41.70
2023-01-13T04:15:51.102Z,42.34
2023-01-13T04:18:24.064Z,41.70
2023-01-13T04:20:53.007Z,41.92
2023-01-13T04:23:21.461Z,42.26
2023-01-13T04:25:49.473Z,42.43
2023-01-13T04:28:17.484Z,43.19
2023-01-13T04:30:45.582Z,42.73
2023-01-13T04:33:13.957Z,42.88
2023-01-13T04:35:42.112Z,42.42
2023-01-13T04:38:16.406Z,42.28
2023-01-13T04:40:44.380Z,42.60
2023-01-13T04:43:12.321Z,42.05
2023-01-13T04:45:40.066Z,42.41
2023-01-13T04:48:07.847Z,41.85
2023-01-13T04:50:36.296Z,42.05
2023-01-13T04:53:04.269Z,41.94
2023-01-13T04:55:32.585Z,41.12
2023-01-13T04:58:05.800Z,41.35
2023-01-13T05:00:33.700Z,41.10
2023-01-13T05:03:01.682Z,40.07
2023-01-13T05:05:29.898Z,40.27
2023-01-13T05:07:58.354Z,39.23
2023-01-13T05:10:26.582Z,39.62
2023-01-13T05:13:12.525Z,39.66
2023-01-13T05:15:59.682Z,39.62
2023-01-13T05:18:28.365Z,38.65
2023-01-13T05:20:56.206Z,38.35
2023-01-13T05:23:42.666Z,39.19
2023-01-13T05:26:10.495Z,38.87
2023-01-13T05:28:38.182Z,39.16
2023-01-13T05:31:06.120Z,38.75
2023-01-13T05:33:35.740Z,38.52
2023-01-13T05:36:04.207Z,37.89
2023-01-13T05:38:31.989Z,38.26
2023-01-13T05:41:19.012Z,37.91
2023-01-13T05:43:47.061Z,37.76
2023-01-13T05:46:15.280Z,37.74
2023-01-13T05:48:43.436Z,37.86
2023-01-13T05:51:12.222Z,37.61
2023-01-13T05:53:43.141Z,36.89
2023-01-13T05:56:11.389Z,36.98
2023-01-13T05:58:39.520Z,37.56
2023-01-13T06:01:08.852Z,38.11
2023-01-13T06:03:36.882Z,37.80
2023-01-13T06:06:04.832Z,38.04
2023-01-13T06:08:32.865Z,38.80
2023-01-13T06:11:00.766Z,38.75
2023-01-13T06:13:28.614Z,38.66
2023-01-13T06:15:58.160Z,38.57
2023-01-13T06:18:26.210Z,38.72
2023-01-13T06:20:54.090Z,38.39
2023-01-13T06:23:21.960Z,39.18
2023-01-13T06:26:16.001Z,38.23
2023-01-13T06:28:44.160Z,37.95
2023-01-13T06:31:12.376Z,37.64
2023-01-13T06:33:43.392Z,38.43
2023-01-13T06:36:14.113Z,38.15
2023-01-13T06:38:44.069Z,38.66
2023-01-13T06:41:12.396Z,38.79
2023-01-13T06:43:40.319Z,39.23
2023-01-13T06:46:08.757Z,39.45
2023-01-13T06:48:36.561Z,38.81
2023-01-13T06:51:05.606Z,38.99
2023-01-13T06:53:33.597Z,39.11
2023-01-13T06:56:01.455Z,39.71
2023-01-13T06:58:29.296Z,39.58
2023-01-13T07:01:00.808Z,39.63
2023-01-13T07:03:28.792Z,39.55
2023-01-13T07:05:56.954Z,39.77
2023-01-13T07:08:24.949Z,39.71
2023-01-13T07:10:53.477Z,39.94
2023-01-13T07:13:40.063Z,40.10
2023-01-13T07:16:08.908Z,39.67
2023-01-13T07:18:36.874Z,39.81
2023-01-13T07:21:08.974Z,40.38
2023-01-13T07:23:41.040Z,40.51
2023-01-13T07:26:09.434Z,40.46
2023-01-13T07:28:37.399Z,40.61
2023-01-13T07:31:05.934Z,40.65
2023-01-13T07:33:33.863Z,40.93
2023-01-13T07:36:03.421Z,40.86
2023-01-13T07:38:31.403Z,41.28
2023-01-13T07:41:19.192Z,40.88
2023-01-13T07:43:47.048Z,41.04
2023-01-13T07:46:14.972Z,41.12
2023-01-13T07:48:42.887Z,41.18
2023-01-13T07:51:11.446Z,41.41
2023-01-13T07:53:39.293Z,41.07
2023-01-13T07:56:07.820Z,41.04
2023-01-13T07:58:36.305Z,41.10
2023-01-13T08:01:11.319Z,40.76
2023-01-13T08:03:39.896Z,41.06
2023-01-13T08:06:07.898Z,41.22
2023-01-13T08:08:35.837Z,41.15
2023-01-13T08:11:04.912Z,41.31
2023-01-13T08:13:32.812Z,41.80
2023-01-13T08:16:02.257Z,41.84
2023-01-13T08:18:30.267Z,41.64
2023-01-13T08:21:01.281Z,41.38
2023-01-13T08:23:29.145Z,41.05
2023-01-13T08:26:01.863Z,41.50
2023-01-13T08:28:29.886Z,41.28
2023-01-13T08:31:05.057Z,40.98
2023-01-13T08:33:33.215Z,41.65
2023-01-13T08:36:06.924Z,41.50
2023-01-13T08:38:35.318Z,40.97
2023-01-13T08:41:09.221Z,40.22
2023-01-13T08:43:37.000Z,40.58
2023-01-13T08:46:05.136Z,40.00
2023-01-13T08:48:33.213Z,40.20
2023-01-13T08:51:05.795Z,40.49
2023-01-13T08:53:33.317Z,40.02
2023-01-13T08:56:01.149Z,40.35
2023-01-13T08:58:29.077Z,40.23
2023-01-13T09:00:57.301Z,40.09
2023-01-13T09:03:25.347Z,40.13
2023-01-13T09:05:53.183Z,39.54
2023-01-13T09:08:21.884Z,39.57
2023-01-13T09:10:49.932Z,40.08
2023-01-13T09:13:17.772Z,40.15
2023-01-13T09:15:46.255Z,40.49
2023-01-13T09:18:14.126Z,40.41
2023-01-13T09:20:42.190Z,40.70
2023-01-13T09:23:11.145Z,40.57
2023-01-13T09:25:39.986Z,40.86
2023-01-13T09:28:08.921Z,40.67
2023-01-13T09:30:37.713Z,41.04
2023-01-13T09:33:23.721Z,40.99
2023-01-13T09:35:51.727Z,41.14
2023-01-13T09:38:19.589Z,41.38
2023-01-13T09:40:48.384Z,41.97
2023-01-13T09:43:42.880Z,41.33
2023-01-13T09:46:47.561Z,41.76
2023-01-13T09:49:22.686Z,41.21
2023-01-13T09:51:59.563Z,42.04
2023-01-13T09:54:42.684Z,41.47
2023-01-13T09:57:17.806Z,41.62
2023-01-13T09:59:45.731Z,42.15
2023-01-13T10:02:34.653Z,42.04
2023-01-13T10:05:32.813Z,43.07
2023-01-13T10:08:05.723Z,41.96
2023-01-13T10:10:54.177Z,42.76
2023-01-13T10:13:30.668Z,42.68
2023-01-13T10:16:06.008Z,43.10
2023-01-13T10:18:38.335Z,42.91
2023-01-13T10:21:17.819Z,43.32
2023-01-13T10:24:09.424Z,43.39
2023-01-13T10:26:37.096Z,44.53
2023-01-13T10:29:25.429Z,44.77
2023-01-13T10:31:54.418Z,44.70
2023-01-13T10:34:23.020Z,44.40
2023-01-13T10:37:06.857Z,44.88
2023-01-13T10:39:45.741Z,44.53
2023-01-13T10:42:22.460Z,44.54
2023-01-13T10:44:54.359Z,44.35
2023-01-13T10:47:27.679Z,44.66
2023-01-13T10:50:13.403Z,44.09
2023-01-13T10:52:43.959Z,44.40
2023-01-13T10:55:32.434Z,44.20
2023-01-13T10:58:19.388Z,44.08
2023-01-13T11:00:47.481Z,43.94
2023-01-13T11:03:24.832Z,44.22
2023-01-13T11:05:59.829Z,43.80
2023-01-13T11:08:29.670Z,43.55
2023-01-13T11:10:59.264Z,43.74
2023-01-13T11:13:35.247Z,43.60
2023-01-13T11:16:05.883Z,43.41
2023-01-13T11:19:12.382Z,43.70
2023-01-13T11:22:20.837Z,44.03
2023-01-13T11:24:54.821Z,43.60
2023-01-13T11:27:32.028Z,44.23
2023-01-13T11:30:26.477Z,44.60
2023-01-13T11:33:16.110Z,44.93
2023-01-13T11:36:02.359Z,45.43
2023-01-13T11:38:54.487Z,45.36
2023-01-13T11:41:33.133Z,44.77
2023-01-13T11:44:31.574Z,45.43
2023-01-13T11:46:59.377Z,45.32
2023-01-13T11:49:50.235Z,44.91
2023-01-13T11:52:35.684Z,44.96
2023-01-13T11:55:22.848Z,45.29
2023-01-13T11:58:33.807Z,45.11
2023-01-13T12:01:23.029Z,45.98
2023-01-13T12:04:08.635Z,46.15
2023-01-13T12:06:38.626Z,46.25
2023-01-13T12:09:46.758Z,46.85
2023-01-13T12:12:20.507Z,46.93
2023-01-13T12:14:55.982Z,46.98
2023-01-13T12:17:32.170Z,47.27
2023-01-13T12:19:59.861Z,46.67
2023-01-13T12:22:29.853Z,46.87
2023-01-13T12:25:06.436Z,46.63
2023-01-13T12:27:57.116Z,46.37
2023-01-13T12:30:28.430Z,46.68
2023-01-13T12:32:59.574Z,47.04
2023-01-13T12:35:39.724Z,45.94
2023-01-13T12:38:23.460Z,46.11
2023-01-13T12:41:09.816Z,46.16
2023-01-13T12:43:56.466Z,45.84
2023-01-13T12:46:24.915Z,45.63
2023-01-13T12:48:57.129Z,46.08
2023-01-13T12:51:38.373Z,45.18
2023-01-13T12:54:38.278Z,45.48
2023-01-13T12:57:26.712Z,45.46
2023-01-13T13:00:00.752Z,45.23
2023-01-13T13:02:33.391Z,45.04
2023-01-13T13:05:02.104Z,45.82
2023-01-13T13:07:50.148Z,45.77
2023-01-13T13:10:32.183Z,45.40
2023-01-13T13:13:18.928Z,45.30
2023-01-13T13:15:50.717Z,46.31
2023-01-13T13:18:18.534Z,46.35
2023-01-13T13:21:09.335Z,46.83
2023-01-13T13:23:48.360Z,47.11
2023-01-13T13:26:23.276Z,46.60
2023-01-13T13:29:29.559Z,46.73
2023-01-13T13:32:31.525Z,45.79
2023-01-13T13:35:21.431Z,46.59
2023-01-13T13:38:32.082Z,45.66
2023-01-13T13:41:18.308Z,46.08
2023-01-13T13:44:04.985Z,46.03
2023-01-13T13:46:49.342Z,46.51
2023-01-13T13:49:22.258Z,45.67
2023-01-13T13:52:05.141Z,46.12
2023-01-13T13:54:32.764Z,46.35
2023-01-13T13:57:01.459Z,46.14
2023-01-13T13:59:34.036Z,45.96
2023-01-13T14:02:02.341Z,46.23
2023-01-13T14:04:34.136Z,46.22
2023-01-13T14:07:21.029Z,46.55
2023-01-13T14:09:51.385Z,45.16
2023-01-13T14:12:27.419Z,44.74
2023-01-13T14:14:57.963Z,44.64
2023-01-13T14:17:27.450Z,44.79
2023-01-13T14:20:02.859Z,44.90
2023-01-13T14:22:30.651Z,45.31
2023-01-13T14:24:58.879Z,44.77
2023-01-13T14:27:28.092Z,44.83
2023-01-13T14:29:56.855Z,44.99
2023-01-13T14:32:28.923Z,44.92
2023-01-13T14:34:56.750Z,44.94
2023-01-13T14:37:39.710Z,45.15
2023-01-13T14:40:36.557Z,45.69
2023-01-13T14:43:10.874Z,45.20
2023-01-13T14:45:38.823Z,45.51
2023-01-13T14:48:08.826Z,46.20
2023-01-13T14:50:36.810Z,45.49
2023-01-13T14:53:05.566Z,44.82
2023-01-13T14:55:34.286Z,44.95
2023-01-13T14:58:37.753Z,44.80
2023-01-13T15:01:29.538Z,43.50
2023-01-13T15:04:17.313Z,43.59
2023-01-13T15:06:48.783Z,42.89
2023-01-13T15:09:23.773Z,42.91
2023-01-13T15:11:54.718Z,42.43
2023-01-13T15:14:32.049Z,42.25
2023-01-13T15:16:59.921Z,41.69
2023-01-13T15:19:27.725Z,41.84
2023-01-13T15:21:55.536Z,41.95
2023-01-13T15:24:23.558Z,41.46
2023-01-13T15:26:51.521Z,41.48
2023-01-13T15:29:20.892Z,41.39
2023-01-13T15:31:48.809Z,40.30
2023-01-13T15:34:16.572Z,40.48
2023-01-13T15:36:44.516Z,40.63
2023-01-13T15:39:12.309Z,40.12
2023-01-13T15:41:58.558Z,39.96
2023-01-13T15:44:46.134Z,39.65
2023-01-13T15:47:14.834Z,39.19
2023-01-13T15:49:45.915Z,39.29
2023-01-13T15:52:22.628Z,38.73
2023-01-13T15:54:51.204Z,38.48
2023-01-13T15:57:33.173Z,38.40
2023-01-13T16:00:27.239Z,38.32
2023-01-13T16:02:55.130Z,37.54
2023-01-13T16:05:23.070Z,37.83
2023-01-13T16:07:50.906Z,38.33
2023-01-13T16:10:26.619Z,38.89
2023-01-13T16:12:56.228Z,37.92
2023-01-13T16:15:25.316Z,38.30
2023-01-13T16:18:01.025Z,38.25
2023-01-13T16:20:29.080Z,38.37
2023-01-13T16:22:57.030Z,39.10
2023-01-13T16:25:26.491Z,38.36
2023-01-13T16:27:54.554Z,39.00
2023-01-13T16:30:29.822Z,38.22
2023-01-13T16:32:58.049Z,38.06
2023-01-13T16:35:25.989Z,38.03
2023-01-13T16:37:54.442Z,37.49
2023-01-13T16:40:25.403Z,37.39
2023-01-13T16:42:53.410Z,37.41
2023-01-13T16:45:21.241Z,37.44
2023-01-13T16:47:49.268Z,37.01
2023-01-13T16:50:34.552Z,37.28
2023-01-13T16:53:03.482Z,36.86
2023-01-13T16:55:31.253Z,37.45
2023-01-13T16:57:59.142Z,37.15
2023-01-13T17:00:27.046Z,37.50
2023-01-13T17:02:54.801Z,37.18
2023-01-13T17:05:22.595Z,37.48
2023-01-13T17:07:50.264Z,36.94
2023-01-13T17:10:23.373Z,37.33
2023-01-13T17:12:51.187Z,37.00
2023-01-13T17:15:19.547Z,36.72
2023-01-13T17:17:49.255Z,37.63
2023-01-13T17:20:17.061Z,37.84
2023-01-13T17:22:47.511Z,38.01
2023-01-13T17:25:17.709Z,37.77
2023-01-13T17:27:45.460Z,37.70
2023-01-13T17:30:16.243Z,37.84
2023-01-13T17:32:44.076Z,37.54
2023-01-13T17:35:13.735Z,37.30
2023-01-13T17:37:41.643Z,37.48
2023-01-13T17:40:10.410Z,37.24
2023-01-13T17:42:38.320Z,36.61
2023-01-13T17:45:07.428Z,37.06
2023-01-13T17:47:35.354Z,36.41
2023-01-13T17:50:04.557Z,36.84
2023-01-13T17:52:32.316Z,36.58
2023-01-13T17:55:00.183Z,36.57
2023-01-13T17:57:28.138Z,37.39
2023-01-13T17:59:55.892Z,37.25
2023-01-13T18:02:23.596Z,37.16
2023-01-13T18:04:51.422Z,37.27
2023-01-13T18:07:19.180Z,37.03
2023-01-13T18:09:47.053Z,36.90
2023-01-13T18:12:15.026Z,37.38
2023-01-13T18:14:43.008Z,37.34
2023-01-13T18:17:11.032Z,37.24
2023-01-13T18:19:56.824Z,37.07
2023-01-13T18:22:42.854Z,37.11
2023-01-13T18:25:32.564Z,36.72
2023-01-13T18:28:02.986Z,37.31
2023-01-13T18:30:30.990Z,37.69
2023-01-13T18:32:58.947Z,37.32
2023-01-13T18:35:26.911Z,37.90
2023-01-13T18:37:54.741Z,38.27
2023-01-13T18:40:22.701Z,38.42
2023-01-13T18:42:54.721Z,38.12
2023-01-13T18:45:27.668Z,38.43
2023-01-13T18:47:55.663Z,37.97
2023-01-13T18:50:23.914Z,38.47
2023-01-13T18:52:51.920Z,37.61
2023-01-13T18:55:19.795Z,37.69
2023-01-13T18:57:47.723Z,38.05
2023-01-13T19:00:17.784Z,38.02
2023-01-13T19:02:47.635Z,37.95
2023-01-13T19:05:15.424Z,38.16
2023-01-13T19:07:46.771Z,38.18
2023-01-13T19:10:14.786Z,37.96
2023-01-13T19:12:42.662Z,37.96
2023-01-13T19:15:10.988Z,38.07
2023-01-13T19:17:38.850Z,37.95
2023-01-13T19:20:07.174Z,37.64
2023-01-13T19:22:35.309Z,37.82
2023-01-13T19:25:03.508Z,38.11
2023-01-13T19:27:31.522Z,37.35
2023-01-13T19:30:01.482Z,37.65
2023-01-13T19:32:32.715Z,37.13
2023-01-13T19:35:01.358Z,37.71
2023-01-13T19:37:30.696Z,37.74
2023-01-13T19:40:01.781Z,37.38
2023-01-13T19:42:47.873Z,38.44
2023-01-13T19:45:28.092Z,37.58
2023-01-13T19:47:56.391Z,38.32
2023-01-13T19:50:24.764Z,37.76
2023-01-13T19:52:52.617Z,38.35
2023-01-13T19:55:20.295Z,38.07
2023-01-13T19:57:48.177Z,39.15
2023-01-13T20:00:20.883Z,38.54
2023-01-13T20:02:49.948Z,38.97
2023-01-13T20:05:21.563Z,38.62
2023-01-13T20:07:50.489Z,38.61
2023-01-13T20:10:19.551Z,38.60
2023-01-13T20:12:47.353Z,38.72
2023-01-13T20:15:15.367Z,38.06
2023-01-13T20:17:43.160Z,38.03
2023-01-13T20:20:12.288Z,37.72
2023-01-13T20:22:40.361Z,37.82
2023-01-13T20:25:09.061Z,37.63
2023-01-13T20:27:37.098Z,37.24
2023-01-13T20:30:06.194Z,36.99
2023-01-13T20:32:33.830Z,36.78
2023-01-13T20:35:01.545Z,36.89
2023-01-13T20:37:29.318Z,36.28
2023-01-13T20:39:58.549Z,36.54
2023-01-13T20:42:44.614Z,36.38
2023-01-13T20:45:21.997Z,35.94
2023-01-13T20:47:49.855Z,36.98
2023-01-13T20:50:17.867Z,36.79
2023-01-13T20:52:45.766Z,36.85
2023-01-13T20:55:13.965Z,37.54
2023-01-13T20:57:42.303Z,38.17
2023-01-13T21:00:10.959Z,37.98
2023-01-13T21:02:40.046Z,38.39
2023-01-13T21:05:08.447Z,38.77
2023-01-13T21:07:36.193Z,39.75
2023-01-13T21:10:04.446Z,39.37
2023-01-13T21:12:50.258Z,39.39
2023-01-13T21:15:18.000Z,39.64
2023-01-13T21:18:04.965Z,40.13
2023-01-13T21:20:34.286Z,39.60
2023-01-13T21:23:02.759Z,40.09
2023-01-13T21:25:31.280Z,40.45
2023-01-13T21:28:04.617Z,40.06
2023-01-13T21:30:32.986Z,40.26
2023-01-13T21:33:01.199Z,40.56
2023-01-13T21:35:28.880Z,40.13
2023-01-13T21:37:56.682Z,40.43
2023-01-13T21:40:24.454Z,41.01
2023-01-13T21:43:10.554Z,41.05
2023-01-13T21:45:57.910Z,41.63
2023-01-13T21:48:25.872Z,41.88
2023-01-13T21:50:53.722Z,41.80
2023-01-13T21:53:21.492Z,41.54
2023-01-13T21:55:54.875Z,41.47
2023-01-13T21:58:22.669Z,42.56
2023-01-13T22:00:50.584Z,42.51
2023-01-13T22:03:19.146Z,42.41
2023-01-13T22:05:47.495Z,42.18
2023-01-13T22:08:15.307Z,42.40
2023-01-13T22:10:58.244Z,42.06
2023-01-13T22:13:45.859Z,42.51
2023-01-13T22:16:14.594Z,42.21
2023-01-13T22:18:42.382Z,42.67
2023-01-13T22:21:11.270Z,42.58
2023-01-13T22:23:39.180Z,42.72
2023-01-13T22:26:07.520Z,43.18
2023-01-13T22:28:40.994Z,42.59
2023-01-13T22:31:15.673Z,42.85
2023-01-13T22:33:43.640Z,42.93
2023-01-13T22:36:11.569Z,42.74
2023-01-13T22:38:39.453Z,43.39
2023-01-13T22:41:08.291Z,43.36
2023-01-13T22:43:36.783Z,43.13
2023-01-13T22:46:07.393Z,43.09
2023-01-13T22:48:35.372Z,43.01
2023-01-13T22:51:10.386Z,43.46
2023-01-13T22:53:38.477Z,43.20
2023-01-13T22:56:06.647Z,43.13
2023-01-13T22:58:34.572Z,43.16
2023-01-13T23:01:10.223Z,43.64
2023-01-13T23:03:38.047Z,43.02
2023-01-13T23:06:06.417Z,42.94
2023-01-13T23:08:34.630Z,43.31
2023-01-13T23:11:03.783Z,43.10
2023-01-13T23:13:31.611Z,42.92
2023-01-13T23:16:04.174Z,43.36
2023-01-13T23:18:32.102Z,42.84
2023-01-13T23:21:10.830Z,43.45
2023-01-13T23:23:38.829Z,43.16
2023-01-13T23:26:07.541Z,42.82
2023-01-13T23:28:35.792Z,43.32
2023-01-13T23:31:11.309Z,43.32
2023-01-13T23:33:41.573Z,43.14
2023-01-13T23:36:13.397Z,43.65
2023-01-13T23:38:41.696Z,43.22
2023-01-13T23:41:10.610Z,43.42
2023-01-13T23:43:38.507Z,43.14
2023-01-13T23:46:08.220Z,43.47
2023-01-13T23:48:36.250Z,42.74
2023-01-13T23:51:06.132Z,42.84
2023-01-13T23:53:40.209Z,42.85
2023-01-13T23:56:11.467Z,42.98
2023-01-13T23:58:39.152Z,42.67
